This is the latest recevied weather packets stored in our database for station/object LRBS. If no packets are shown the sender has not sent any weather packets the latest 10 day(s).
| Time | Temp. | Humidity | Pressure | Rain* | Wind** | Luminosity | Snow |
|---|---|---|---|---|---|---|---|
| 1777664912 | 10° C | 47% | 1025 hPa | - | - | - | - |
| 1777664015 | 10° C | 47% | 1025 hPa | - | - | - | - |
| 1777663094 | 8.89° C | 58% | 1025 hPa | - | - | - | - |
| 1777662194 | 8.89° C | 58% | 1025 hPa | - | - | - | - |
| 1777661294 | 10° C | 50% | 1025 hPa | - | - | - | - |
| 1777660423 | 10° C | 50% | 1025 hPa | - | - | - | - |
| 1777659494 | 10° C | 50% | 1024 hPa | - | - | - | - |
| 1777658617 | 10° C | 50% | 1024 hPa | - | - | - | - |
| 1777657695 | 10° C | 50% | 1024 hPa | - | - | - | - |
| 1777656794 | 10° C | 50% | 1024 hPa | - | - | - | - |
| 1777655919 | 11.11° C | 44% | 1024 hPa | - | - | - | - |
| 1777654994 | 11.11° C | 44% | 1024 hPa | - | - | - | - |
| 1777654094 | 12.22° C | 44% | 1024 hPa | - | - | - | - |
| 1777653194 | 12.22° C | 44% | 1024 hPa | - | - | - | - |
| 1777652294 | 12.78° C | 36% | 1024 hPa | - | - | - | - |
| 1777651394 | 12.78° C | 36% | 1024 hPa | - | - | - | - |
| 1777650494 | 12.78° C | 36% | 1024 hPa | - | - | - | - |
| 1777649594 | 12.78° C | 36% | 1024 hPa | - | - | - | - |
| 1777648695 | 12.78° C | 38% | 1024 hPa | - | - | - | - |
| 1777647794 | 12.78° C | 38% | 1024 hPa | - | - | - | - |
| 1777646932 | 12.22° C | 41% | 1024 hPa | - | - | - | - |
| 1777646070 | 12.22° C | 41% | 1024 hPa | - | - | - | - |
| 1777645095 | 12.78° C | 36% | 1024 hPa | - | - | - | - |
| 1777644194 | 12.78° C | 36% | 1024 hPa | - | - | - | - |
| 1777643295 | 12.78° C | 36% | 1024 hPa | - | - | - | - |
* Rain since midnight (hover to see other rain measurements)
** Current wind speed in m/s (hover to see current wind gust speed)